Aeroporto :
LOGIN :

Iscrizione | Disclaimer

   EN    FR    IT 

 










Sommario :    VFR   VFR Marginale   IFR   IFR Intensivo   IFR Molto Intensivo
Visibilità : 
Base nubi : 
>= 8 km
>= 3000ft
5 / 8 km
1000 / 3000 ft
1500m / 5 km
500 / 1000 ft
800 / 1500m
200 / 500 ft
< 800m
< 200 ft
Simboli :   Temporali  Nebbia  Neve Forte  Precipitazioni Forti  Vento > 20 kt
SIGMETs :   Varie  Temporali  Ghiacco  Turbolenza  Onda orograficha  Ceneri Vulcaniche






- Altitudine del aeroporto : 1822 ft


ETSL - Lechfeld AB

ULTIMO METAR :
  • 090749Z 23008KT 9999 BKN140 22/11 Q1019 BLU BLU

METARs OBSOLETI :
  • 090720Z 22006KT 9999 SCT140 22/12 Q1019 BLU+BLU+ BECMG BLU
  • 090620Z 20006KT 9999 SCT140 19/12 Q1019 BLU+BLU+ BECMG BLU
  • 090520Z 19006KT 9999 SCT140 16/11 Q1019 BLU+BLU+ BECMG BLU

TAF TAF ETSL
Valido dal 09 a 08 ore il 09 a 17 ore UTC


090720Z 0908/0917 23008G18KT 9999 NSW BKN130 BY ETGL



MetMap, La meteo Aeronautica in un colpo d'occhio ! - Copyright ORBIFLY Dicembre 2007 - Disclaimer

ORBIFLY MET'MAP TEAM :

Programmazione e sviluppo : Alexandra Zaïnal
Concezione : Baudouin d'Aumeries
Aiuto per la programmazione : Marc-Olivier Méhu
Supporto tecnico e logistico : Manuel Goepfert
Aiuto per la traduzione : Arnaldo La Scala

Contatto : metmap@orbifly.com




FONTI E CREDITI :

   NOAA